Tiempo atmosférico en la estación meteorológica de Álora, Málaga (181 m.)



Fecha
DESCASC
Temp. máxima en grados centígrados (hora)
DESCASC
Temp. mínima en grados centígrados (hora)
DESCASC
Temp. media en grados centígrados
DESCASC
Racha de viento máxima en m/sg (hora)
DESCASC
Velocidad máxima media en intervalos de 10 minutos(hora)
DESCASC
Precipitaciones diarias en mm
DESCASC
Precipitaciones de 00:00 a 06:00 en mm
DESCASC
Precipitaciones de 06:00 a 12:00 en mm
DESCASC
Precipitaciones de 12:00 a 18:00 en mm
DESCASC
Precipitaciones de 18:00 a 24:00 en mm
DESCASC
20-09-2020 30.7 (15:40) 17.2 (06:00) 24 9.72 (16:40) 5.28 (18:00) 0 0 0 0 0
19-09-2020 26.5 (16:00) 16.3 (08:20) 21.4 8.61 (16:40) 5 (16:40) 0 0 0 0 0
18-09-2020 24.3 (17:20) 19 (08:10) 21.6 14.72 (13:10) 10.83 (12:40) 12 0.4 11.4 0 0.2
17-09-2020 28.6 (14:30) 22.2 (00:00) 25.4 12.5 (07:20) 7.78 (07:20) 0 0 0 0 0
16-09-2020 29.6 (16:40) 17.7 (00:00) 23.7 9.44 (15:30) 6.11 (15:10) 0 0 0 0 0
15-09-2020 29.9 (16:50) 20.1 (00:00) 25 10.83 (13:30) 7.22 (15:00) 0 0 0 0 0
14-09-2020 28.4 (17:50) 22.3 (00:00) 25.3 11.39 (13:40) 8.06 (13:40) 0 0 0 0 0
13-09-2020 30 (16:00) 21.3 (00:00) 25.6 13.33 (13:20) 8.33 (14:00) 0 0 0 0 0
12-09-2020 32 (16:50) 18.3 (00:00) 25.1 12.5 (16:10) 8.61 (16:20) 0 0 0 0 0
11-09-2020 31.3 (16:50) 16.7 (00:00) 24 9.17 (14:10) 6.67 (14:40) 0 0 0 0 0
10-09-2020 34 (15:30) 16.5 (00:00) 25.3 10 (16:40) 6.67 (16:30) 0 0 0 0 0
09-09-2020 29.9 (16:30) 19.3 (00:00) 24.6 9.44 (13:20) 5.83 (12:30) 0 0 0 0 0
08-09-2020 26.4 (17:30) 20.7 (00:00) 23.6 12.22 (14:40) 8.33 (13:30) 0 0 0 0 0
07-09-2020 37.1 (15:50) 18.2 (08:20) 27.6 10.56 (17:20) 7.22 (17:20) 0 0 0 0 0
06-09-2020 29.1 (17:00) 19.3 (00:00) 24.2 9.72 (13:50) 6.67 (13:50) 0 0 0 0 0
05-09-2020 29.2 (17:50) 20.7 (00:00) 25 9.17 (13:10) 6.39 (13:00) 0 0 0 0 0
04-09-2020 28.9 (13:40) 19 (00:00) 23.9 13.89 (15:50) 8.33 (13:40) 0 0 0 0 0
03-09-2020 28.3 (17:00) 18.2 (00:00) 23.3 12.5 (13:40) 8.61 (14:50) 0 0 0 0 0
02-09-2020 29.4 (14:50) 15.4 (00:00) 22.4 9.72 (16:00) 6.94 (15:50) 0 0 0 0 0
01-09-2020 28.8 (18:40) 16.7 (00:00) 22.8 6.67 (18:10) 4.72 (18:50) 0 0 0 0 0
31-08-2020 27.9 (15:50) 19.8 (00:00) 23.8 12.5 (15:20) 8.33 (13:00) 0 0 0 0 0
30-08-2020 29.6 (16:10) 19.1 (00:00) 24.4 9.17 (14:40) 6.11 (12:50) 0 0 0 0 0
29-08-2020 30.3 (18:20) 19.8 (00:00) 25 14.72 (16:30) 8.06 (16:30) 0 0 0 0 0
28-08-2020 37.4 (15:00) 21.9 (00:00) 29.7 12.78 (16:00) 7.22 (16:20) 0 0 0 0 0
27-08-2020 38.2 (15:50) 20.8 (00:00) 29.5 8.33 (16:50) 5.83 (16:50) 0 0 0 0 0
26-08-2020 37 (17:10) 20.2 (00:00) 28.6 7.78 (16:40) 5 (16:20) 0 0 0 0 0
25-08-2020 33.4 (18:40) 23 (00:00) 28.2 10 (14:30) 6.67 (13:10) 0 0 0 0 0
24-08-2020 31.8 (16:50) 23.3 (00:00) 27.5 8.89 (13:30) 5.83 (13:10) 0 0 0 0 0
23-08-2020 32.7 (16:50) 21.2 (00:00) 27 9.17 (14:00) 6.67 (14:00) 0 0 0 0 0

Gráficas

Temp. máximas Temp. mínimas Temp. medias Precipitaciones Rachas de viento máximas Velocidades máximas media en intervalos de 10 minutos

Datos horarios

Fecha y hora oficial Temperatura (ºC) Velocidad del viento (km/h) Dirección del viento Racha (km/h) Dirección de racha Precipitación (mm) Presión (hPa) Tendencia (hPa) Humedad (%)
2020-09-21 23:00:00 25.2 4 Norte 15 Nordeste 0 -- -- 42
2020-09-21 22:00:00 26.1 9 Nordeste 14 Oeste 0 -- -- 41
2020-09-21 21:00:00 27.2 7 Noroeste 24 Noroeste 0 -- -- 40
2020-09-21 20:00:00 29.4 12 Noroeste 22 Norte 0 -- -- 36
2020-09-21 19:00:00 31.3 11 Noroeste 22 Norte 0 -- -- 29
2020-09-21 18:00:00 30.7 6 Norte 23 Norte 0 -- -- 34
2020-09-21 17:00:00 32.9 10 Noroeste 25 Oeste 0 -- -- 30
2020-09-21 16:00:00 32.4 8 Noroeste 27 Oeste 0 -- -- 31
2020-09-21 15:00:00 31.5 8 Noroeste 24 Oeste 0 -- -- 34
2020-09-21 14:00:00 30.4 9 Noroeste 27 Norte 0 -- -- 38
2020-09-21 13:00:00 28.6 8 Norte 26 Norte 0 -- -- 44
2020-09-21 12:00:00 26.5 10 Noroeste 23 Oeste 0 -- -- 53
2020-09-21 11:00:00 24.6 10 Noroeste 28 Oeste 0 -- -- 60
2020-09-21 10:00:00 22.5 9 Noroeste 22 Noroeste 0 -- -- 64
2020-09-21 09:00:00 20.6 8 Norte 23 Oeste 0 -- -- 69
2020-09-21 08:00:00 20.9 9 Noroeste 28 Noroeste 0 -- -- 68
2020-09-21 07:00:00 20.3 8 Noroeste 18 Oeste 0 -- -- 70
2020-09-21 06:00:00 20.3 9 Noroeste 19 Norte 0 -- -- 70
2020-09-21 05:00:00 20.6 10 Noroeste 22 Noroeste 0 -- -- 68
2020-09-21 04:00:00 20.7 14 Noroeste 22 Noroeste 0 -- -- 67
2020-09-21 03:00:00 21.3 9 Norte 14 Noroeste 0 -- -- 65
2020-09-21 02:00:00 21.4 6 Norte 11 Noroeste 0 -- -- 63
2020-09-21 01:00:00 21.5 7 Noroeste 17 Noroeste 0 -- -- 62
2020-09-21 00:00:00 22.1 8 Noroeste 21 Noroeste 0 -- -- 60
2020-09-20 23:00:00 22.6 8 Noroeste 19 Noroeste 0 -- -- 58
2020-09-20 22:00:00 23.5 8 Noroeste 21 Noroeste 0 -- -- 56
2020-09-20 21:00:00 24.3 6 Noroeste 25 Norte 0 -- -- 54
2020-09-20 20:00:00 25.7 14 Noroeste 33 Norte 0 -- -- 50
2020-09-20 19:00:00 27.7 14 Noroeste 32 Noroeste 0 -- -- 44
2020-09-20 18:00:00 29.3 19 Norte 31 Norte 0 -- -- 41
2020-09-20 17:00:00 30.2 12 Norte 35 Noroeste 0 -- -- 38
2020-09-20 16:00:00 30.4 13 Norte 29 Noroeste 0 -- -- 39
2020-09-20 15:00:00 29.8 10 Norte 26 Oeste 0 -- -- 41
2020-09-20 14:00:00 28.1 12 Noroeste 28 Oeste 0 -- -- 45
2020-09-20 13:00:00 26.4 14 Oeste 24 Oeste 0 -- -- 50
2020-09-20 12:00:00 24 12 Oeste 23 Oeste 0 -- -- 58
2020-09-20 11:00:00 22.1 8 Noroeste 18 Oeste 0 -- -- 64
2020-09-20 10:00:00 20 8 Noroeste 22 Norte 0 -- -- 70
2020-09-20 09:00:00 17.3 12 Noroeste 23 Noroeste 0 -- -- 78
2020-09-20 08:00:00 17.3 14 Norte 21 Norte 0 -- -- 76
2020-09-20 07:00:00 17.6 7 Norte 16 Nordeste 0 -- -- 74
2020-09-20 06:00:00 17.2 6 Norte 16 Norte 0 -- -- 78
2020-09-20 05:00:00 17.6 5 Norte 13 Noroeste 0 -- -- 77
2020-09-20 04:00:00 18.1 4 Norte 13 Noroeste 0 -- -- 76
2020-09-20 03:00:00 18.4 6 Noroeste 20 Norte 0 -- -- 79
2020-09-20 02:00:00 19 10 Norte 22 Noroeste 0 -- -- 77
2020-09-20 01:00:00 19.8 3 Noroeste 11 Norte 0 -- -- 74
2020-09-20 00:00:00 20.9 8 Noroeste 17 Noroeste 0 -- -- 71
2020-09-19 23:00:00 20.8 3 Norte 9 Nordeste 0 -- -- 74
2020-09-19 22:00:00 21.6 3 Norte 18 Noroeste 0 -- -- 73
2020-09-19 21:00:00 22.5 8 Noroeste 18 Noroeste 0 -- -- 69
2020-09-19 20:00:00 24.3 9 Noroeste 22 Noroeste 0 -- -- 65
2020-09-19 19:00:00 25.6 6 Noroeste 21 Noroeste 0 -- -- 61
2020-09-19 18:00:00 23.4 7 Noroeste 29 Oeste 0 -- -- 72
2020-09-19 17:00:00 23.9 12 Noroeste 31 Noroeste 0 -- -- 69
2020-09-19 16:00:00 26.5 9 Noroeste 29 Noroeste 0 -- -- 57
2020-09-19 15:00:00 26.1 4 Oeste 12 Oeste 0 -- -- 52
2020-09-19 14:00:00 25.7 3 Noroeste 15 Sudoeste 0 -- -- 53
2020-09-19 13:00:00 25.6 5 Sur 14 Sudeste 0 -- -- 51
2020-09-19 12:00:00 24.2 5 Sur 12 Sur 0 -- -- 59
2020-09-19 11:00:00 20.8 4 Sur 8 Sur 0 -- -- 76
2020-09-19 10:00:00 18.5 3 Sudeste 8 Noroeste 0 -- -- 86
2020-09-19 09:00:00 16.8 3 Noroeste 8 Noroeste 0 -- -- 90
2020-09-19 08:00:00 16.6 3 Noroeste 6 Oeste 0 -- -- 90
2020-09-19 07:00:00 17 3 Norte 10 Norte 0 -- -- 88
2020-09-19 06:00:00 17.4 4 Noroeste 11 Oeste 0 -- -- 89
2020-09-19 05:00:00 18 0 Calma 7 Sudoeste 0 -- -- 88
2020-09-19 04:00:00 18.4 0 Calma 10 Sudoeste 0 -- -- 86
2020-09-19 03:00:00 18.4 3 Noroeste 9 Oeste 0 -- -- 86
2020-09-19 02:00:00 19.4 2 Nordeste 7 Norte 0 -- -- 81
2020-09-19 01:00:00 19.8 0 Calma 5 Sudeste 0 -- -- 79
2020-09-19 00:00:00 20.7 3 Sur 13 Este 0 -- -- 76
2020-09-18 23:00:00 21.1 9 Este 16 Este 0 -- -- 77
2020-09-18 22:00:00 21.5 11 Sur 25 Sur 0 -- -- 71
2020-09-18 21:00:00 22.1 7 Sudeste 27 Sur 0 -- -- 71
2020-09-18 20:00:00 23.2 16 Sudeste 28 Sur 0.2 -- -- 69
2020-09-18 19:00:00 24.1 21 Sudeste 34 Sudeste 0 -- -- 64
2020-09-18 18:00:00 23.7 21 Sudeste 35 Sudeste 0 -- -- 71
2020-09-18 17:00:00 24.1 18 Sur 32 Sudeste 0 -- -- 71
2020-09-18 16:00:00 22.8 18 Sudeste 43 Sudeste 0 -- -- 78
2020-09-18 15:00:00 22.3 30 Sudeste 48 Sudeste 0 -- -- 80
2020-09-18 14:00:00 22.9 28 Sudeste 53 Sudeste 0 -- -- 79
2020-09-18 13:00:00 23.8 33 Sudeste 50 Sudeste 0 -- -- 75
2020-09-18 12:00:00 23.3 27 Sudeste 42 Sudeste 0.2 -- -- 76
2020-09-18 11:00:00 21.5 24 Sudeste 39 Sudeste 0 -- -- 83
2020-09-18 10:00:00 19.8 7 Sur 20 Sur 0 -- -- 92
2020-09-18 09:00:00 19.2 8 Sudeste 36 Sur 2.2 -- -- 93
2020-09-18 08:00:00 19.1 12 Noroeste 22 Oeste 6.8 -- -- 92
2020-09-18 07:00:00 19.4 5 Oeste 14 Este 2.2 -- -- 90
2020-09-18 06:00:00 19.6 3 Noroeste 24 Este 0.4 -- -- 89
2020-09-18 05:00:00 20.8 17 Este 30 Este 0 -- -- 80
2020-09-18 04:00:00 20.8 15 Sudeste 36 Sudeste 0 -- -- 78
2020-09-18 03:00:00 21.8 23 Sudeste 38 Sudeste 0 -- -- 71
2020-09-18 02:00:00 22.7 22 Sudeste 51 Sur 0 -- -- 69
2020-09-18 01:00:00 23.2 21 Sudeste 46 Sudeste 0 -- -- 64
2020-09-18 00:00:00 23.7 19 Este 33 Este 0 -- -- 62
2020-09-17 23:00:00 23.6 18 Este 31 Este 0 -- -- 62
2020-09-17 22:00:00 23.7 14 Sudeste 38 Este 0 -- -- 63
2020-09-17 21:00:00 24.2 19 Sudeste 45 Este 0 -- -- 63
2020-09-17 20:00:00 25 26 Este 39 Este 0 -- -- 60
2020-09-17 19:00:00 24.8 21 Sudeste 35 Sudeste 0 -- -- 71
2020-09-17 18:00:00 25.5 21 Sur 33 Sur 0 -- -- 70
2020-09-17 17:00:00 25.9 19 Sudeste 39 Sur 0 -- -- 71
2020-09-17 16:00:00 27.7 24 Sudeste 40 Sur 0 -- -- 62
2020-09-17 15:00:00 28 22 Sur 33 Sur 0 -- -- 61
2020-09-17 14:00:00 27.7 17 Sur 30 Sur 0 -- -- 63
2020-09-17 13:00:00 25.9 19 Sur 31 Sudoeste 0 -- -- 73
2020-09-17 12:00:00 24.6 17 Sur 27 Sur 0 -- -- 77
2020-09-17 11:00:00 23.8 18 Sudeste 35 Sudeste 0 -- -- 79
2020-09-17 10:00:00 23.6 23 Sudeste 34 Sudeste 0 -- -- 79
2020-09-17 09:00:00 23.4 21 Sudeste 35 Este 0 -- -- 80
2020-09-17 08:00:00 23.3 18 Este 45 Este 0 -- -- 79
2020-09-17 07:00:00 23.3 25 Este 37 Sudeste 0 -- -- 78
2020-09-17 06:00:00 23.1 25 Este 35 Este 0 -- -- 78
2020-09-17 05:00:00 23 16 Sudeste 25 Este 0 -- -- 77
2020-09-17 04:00:00 22.4 15 Sur 25 Sur 0 -- -- 79
2020-09-17 03:00:00 22.3 16 Sudeste 26 Sur 0 -- -- 80
2020-09-17 02:00:00 22.8 19 Sur 32 Sur 0 -- -- 77
2020-09-17 01:00:00 23 17 Sudeste 27 Sur 0 -- -- 74
2020-09-17 00:00:00 23.3 5 Sur 19 Este 0 -- -- 73
2020-09-16 23:00:00 23.7 6 Sudeste 17 Sudeste 0 -- -- 73
2020-09-16 22:00:00 23.7 4 Sudeste 12 Sur 0 -- -- 71
2020-09-16 21:00:00 24.1 9 Sudeste 15 Sur 0 -- -- 69
2020-09-16 20:00:00 24.6 12 Sudeste 21 Sudeste 0 -- -- 67
2020-09-16 19:00:00 25.9 14 Sudeste 21 Sur 0 -- -- 63
2020-09-16 18:00:00 27.2 15 Sur 27 Sur 0 -- -- 55
2020-09-16 17:00:00 29.2 18 Sur 28 Sur 0 -- -- 50
2020-09-16 16:00:00 28.8 15 Sur 34 Sudeste 0 -- -- 51
2020-09-16 15:00:00 27.7 19 Sudeste 28 Sur 0 -- -- 53
2020-09-16 14:00:00 27.1 20 Sudeste 30 Sudeste 0 -- -- 55
2020-09-16 13:00:00 26.8 19 Sudeste 27 Sudeste 0 -- -- 57
2020-09-16 12:00:00 26.6 15 Sur 23 Sur 0 -- -- 57
2020-09-16 11:00:00 24.1 7 Sudeste 12 Sur 0 -- -- 65
2020-09-16 10:00:00 20.5 2 Sudeste 5 Sudeste 0 -- -- 77
2020-09-16 09:00:00 18.1 0 Calma 3 Norte 0 -- -- 84
2020-09-16 08:00:00 17.9 0 Calma 2 Este 0 -- -- 82
2020-09-16 07:00:00 18.2 0 Calma 5 Noroeste 0 -- -- 82
2020-09-16 06:00:00 18.4 2 Oeste 5 Norte 0 -- -- 80
2020-09-16 05:00:00 18.9 0 Calma 3 Oeste 0 -- -- 79
2020-09-16 04:00:00 19.2 0 Calma 6 Oeste 0 -- -- 75
2020-09-16 03:00:00 19.6 2 Oeste 4 Oeste 0 -- -- 74
2020-09-16 02:00:00 20.6 0 Calma 4 Este 0 -- -- 71
2020-09-16 01:00:00 21.3 0 Calma 9 Nordeste 0 -- -- 68
2020-09-16 00:00:00 22.4 3 Nordeste 8 Este 0 -- -- 64
2020-09-15 23:00:00 23.3 4 Este 9 Este 0 -- -- 61
2020-09-15 22:00:00 23.7 4 Sudoeste 10 Sudeste 0 -- -- 59
2020-09-15 21:00:00 24.6 7 Sudeste 20 Sur 0 -- -- 59
2020-09-15 20:00:00 26.6 14 Sur 21 Sur 0 -- -- 55
2020-09-15 19:00:00 28.8 15 Sur 25 Sur 0 -- -- 49
2020-09-15 18:00:00 29.8 17 Sur 30 Sur 0 -- -- 46
2020-09-15 17:00:00 29.9 19 Sur 30 Sudeste 0 -- -- 47
2020-09-15 16:00:00 29.2 18 Sudeste 33 Sudeste 0 -- -- 50
2020-09-15 15:00:00 28.4 26 Sur 36 Sur 0 -- -- 55
2020-09-15 14:00:00 27.9 19 Sudeste 39 Sudeste 0 -- -- 55
2020-09-15 13:00:00 27.3 21 Sudeste 32 Sur 0 -- -- 58
2020-09-15 12:00:00 26.2 19 Sur 28 Sur 0 -- -- 63
2020-09-15 11:00:00 23.7 8 Sur 16 Sur 0 -- -- 74
2020-09-15 10:00:00 21.3 0 Calma 4 Sudoeste 0 -- -- 79
2020-09-15 09:00:00 20.2 0 Calma 3 Noroeste 0 -- -- 82
2020-09-15 08:00:00 20.1 0 Calma 6 Nordeste 0 -- -- 81
2020-09-15 07:00:00 20.5 0 Calma 5 Nordeste 0 -- -- 79
2020-09-15 06:00:00 21.1 4 Este 6 Este 0 -- -- 77
2020-09-15 05:00:00 21 2 Noroeste 6 Nordeste 0 -- -- 77
2020-09-15 04:00:00 21.1 0 Calma 9 Este 0 -- -- 76
2020-09-15 03:00:00 21.4 7 Este 11 Este 0 -- -- 75
2020-09-15 02:00:00 21.8 7 Sudeste 10 Sudeste 0 -- -- 75
2020-09-15 01:00:00 22 5 Este 12 Sudeste 0 -- -- 73
2020-09-15 00:00:00 22.6 9 Sudeste 13 Sudeste 0 -- -- 72
2020-09-14 23:00:00 23 10 Sudeste 12 Sudeste 0 -- -- 72
2020-09-14 22:00:00 23.5 8 Sudeste 20 Sudeste 0 -- -- 71
2020-09-14 21:00:00 24.2 17 Sudeste 23 Sudeste 0 -- -- 63
2020-09-14 20:00:00 25.4 14 Sur 28 Sur 0 -- -- 60
2020-09-14 19:00:00 26.4 22 Sur 33 Sudeste 0 -- -- 58
2020-09-14 18:00:00 28.2 23 Sur 34 Sur 0 -- -- 48
2020-09-14 17:00:00 28.2 24 Sur 37 Sur 0 -- -- 48
2020-09-14 16:00:00 26.5 23 Sudeste 37 Sur 0 -- -- 51
2020-09-14 15:00:00 27 22 Sudeste 35 Sur 0 -- -- 50
2020-09-14 14:00:00 28 24 Sur 41 Sur 0 -- -- 48
2020-09-14 13:00:00 27.8 27 Sur 38 Sur 0 -- -- 48
2020-09-14 12:00:00 27.1 19 Sudeste 37 Sur 0 -- -- 51
2020-09-14 11:00:00 27.3 21 Sur 33 Sur 0 -- -- 52
2020-09-14 10:00:00 24.6 12 Sudeste 18 Sudeste 0 -- -- 61
2020-09-14 09:00:00 22.9 6 Este 10 Sudeste 0 -- -- 67
2020-09-14 08:00:00 22.8 8 Nordeste 10 Nordeste 0 -- -- 68
2020-09-14 07:00:00 22.9 6 Sudeste 14 Sudeste 0 -- -- 68
2020-09-14 06:00:00 22.7 8 Sudeste 13 Sudeste 0 -- -- 68
2020-09-14 05:00:00 22.6 10 Sudeste 16 Sudeste 0 -- -- 68
2020-09-14 04:00:00 22.6 12 Sudeste 16 Sudeste 0 -- -- 67
2020-09-14 03:00:00 22.5 8 Sudeste 18 Sudeste 0 -- -- 67
2020-09-14 02:00:00 22.6 10 Sudeste 15 Sudeste 0 -- -- 66
2020-09-14 01:00:00 23.2 7 Sudeste 10 Sudeste 0 -- -- 62
2020-09-14 00:00:00 23.7 8 Sudeste 21 Sudeste 0 -- -- 61
2020-09-13 23:00:00 24.5 16 Sudeste 21 Sudeste 0 -- -- 59
2020-09-13 22:00:00 24.6 13 Sudeste 21 Sur 0 -- -- 57
2020-09-13 21:00:00 25.2 18 Sur 25 Sudeste 0 -- -- 55
2020-09-13 20:00:00 26.8 13 Sur 31 Sur 0 -- -- 49
2020-09-13 19:00:00 28.1 27 Sur 38 Sur 0 -- -- 46
2020-09-13 18:00:00 29.1 24 Sur 36 Sur 0 -- -- 44
2020-09-13 17:00:00 29.1 20 Sudeste 43 Sur 0 -- -- 44
2020-09-13 16:00:00 30 26 Sur 42 Sudeste 0 -- -- 43
2020-09-13 15:00:00 29.1 23 Sudeste 42 Sudeste 0 -- -- 44
2020-09-13 14:00:00 28.7 30 Sudeste 48 Sudeste 0 -- -- 43
2020-09-13 13:00:00 28.6 22 Sudeste 42 Sur 0 -- -- 43
2020-09-13 12:00:00 28 24 Sur 45 Sur 0 -- -- 46
2020-09-13 11:00:00 26.7 23 Sur 37 Sur 0 -- -- 49
2020-09-13 10:00:00 24.2 16 Sudeste 22 Sudeste 0 -- -- 55
2020-09-13 09:00:00 23.2 12 Este 18 Este 0 -- -- 56
2020-09-13 08:00:00 21.7 9 Este 16 Este 0 -- -- 62
2020-09-13 07:00:00 21.5 12 Este 18 Este 0 -- -- 65
2020-09-13 06:00:00 21.5 11 Este 16 Este 0 -- -- 66
2020-09-13 05:00:00 22.1 9 Este 16 Nordeste 0 -- -- 65
2020-09-13 04:00:00 22.4 10 Este 13 Este 0 -- -- 64
2020-09-13 03:00:00 22.8 6 Este 12 Sudeste 0 -- -- 63
2020-09-13 02:00:00 23.4 8 Sudeste 13 Sudeste 0 -- -- 61
2020-09-13 01:00:00 23.5 9 Sudeste 16 Sudeste 0 -- -- 59
2020-09-13 00:00:00 24.1 13 Sudeste 19 Sur 0 -- -- 55
2020-09-12 23:00:00 24.5 12 Sudeste 21 Sudeste 0 -- -- 52
2020-09-12 22:00:00 25.1 14 Sudeste 21 Sur 0 -- -- 50
2020-09-12 21:00:00 25.9 12 Sur 24 Sur 0 -- -- 46
2020-09-12 20:00:00 27 17 Sur 33 Sur 0 -- -- 44
2020-09-12 19:00:00 28.9 23 Sur 37 Sur 0 -- -- 39
2020-09-12 18:00:00 30 25 Sur 40 Sudeste 0 -- -- 35
2020-09-12 17:00:00 31.6 30 Sudeste 45 Sur 0 -- -- 31
2020-09-12 16:00:00 31.4 24 Sudeste 40 Sudeste 0 -- -- 31
2020-09-12 15:00:00 31.4 27 Sudeste 44 Sudeste 0 -- -- 31
2020-09-12 14:00:00 30.3 28 Sudeste 43 Sudeste 0 -- -- 34
2020-09-12 13:00:00 30.7 26 Sudeste 41 Sur 0 -- -- 32
2020-09-12 12:00:00 29.7 22 Sur 33 Sur 0 -- -- 35
2020-09-12 11:00:00 26.3 11 Sur 15 Sudeste 0 -- -- 44
2020-09-12 10:00:00 21.1 2 Este 4 Este 0 -- -- 54
2020-09-12 09:00:00 18.7 0 Calma 3 Oeste 0 -- -- 61
2020-09-12 08:00:00 18.5 0 Calma 2 Oeste 0 -- -- 61
2020-09-12 07:00:00 18.4 0 Calma 4 Noroeste 0 -- -- 61
2020-09-12 06:00:00 18.6 0 Calma 5 Oeste 0 -- -- 60
2020-09-12 05:00:00 18.6 3 Oeste 5 Oeste 0 -- -- 61
2020-09-12 04:00:00 19.2 0 Calma 3 Norte 0 -- -- 60
2020-09-12 03:00:00 19.8 0 Calma 3 Norte 0 -- -- 58
2020-09-12 02:00:00 20.8 2 Sudoeste 8 Nordeste 0 -- -- 55
2020-09-12 01:00:00 21.8 4 Este 8 Este 0 -- -- 52
2020-09-12 00:00:00 22.6 3 Este 6 Nordeste 0 -- -- 53
2020-09-11 23:00:00 23.2 5 Sudeste 10 Sudeste 0 -- -- 54
2020-09-11 22:00:00 24.9 8 Sudeste 15 Sudeste 0 -- -- 45
2020-09-11 21:00:00 26 7 Sudeste 14 Sudeste 0 -- -- 41
2020-09-11 20:00:00 27.6 11 Sur 20 Sudeste 0 -- -- 40
2020-09-11 19:00:00 30.4 14 Sur 23 Sur 0 -- -- 33
2020-09-11 18:00:00 31.1 15 Sur 27 Sur 0 -- -- 34
2020-09-11 17:00:00 30.6 21 Sur 28 Sur 0 -- -- 36
2020-09-11 16:00:00 30.7 20 Sur 32 Sur 0 -- -- 37
2020-09-11 15:00:00 30.8 23 Sur 33 Sur 0 -- -- 36
2020-09-11 14:00:00 30.7 20 Sur 29 Sur 0 -- -- 36
2020-09-11 13:00:00 29.2 20 Sur 31 Sur 0 -- -- 38
2020-09-11 12:00:00 27.6 13 Sur 20 Sur 0 -- -- 44
2020-09-11 11:00:00 24.1 5 Sudeste 9 Sudeste 0 -- -- 54
2020-09-11 10:00:00 19.9 2 Sudoeste 6 Sur 0 -- -- 62
2020-09-11 09:00:00 17.3 0 Calma 2 Oeste 0 -- -- 69
2020-09-11 08:00:00 17 0 Calma 2 Sudoeste 0 -- -- 69
2020-09-11 07:00:00 17.1 0 Calma 2 Sudoeste 0 -- -- 69
2020-09-11 06:00:00 17.6 0 Calma 4 Norte 0 -- -- 66
2020-09-11 05:00:00 18.1 3 Noroeste 6 Oeste 0 -- -- 69
2020-09-11 04:00:00 18.5 2 Oeste 5 Oeste 0 -- -- 65
2020-09-11 03:00:00 19.6 4 Este 7 Nordeste 0 -- -- 65
2020-09-11 02:00:00 20.4 2 Este 6 Nordeste 0 -- -- 56
2020-09-11 01:00:00 21.3 2 Este 8 Sudeste 0 -- -- 55
2020-09-11 00:00:00 22 4 Sudeste 9 Sudoeste 0 -- -- 54
2020-09-10 23:00:00 22.7 6 Sur 12 Sudoeste 0 -- -- 53
2020-09-10 22:00:00 24 7 Sur 13 Sudoeste 0 -- -- 47
2020-09-10 21:00:00 25.2 11 Sur 17 Sur 0 -- -- 45
2020-09-10 20:00:00 27.5 15 Sur 25 Sur 0 -- -- 40
2020-09-10 19:00:00 29.8 16 Sur 23 Sur 0 -- -- 38
2020-09-10 18:00:00 31.5 17 Sur 28 Sudeste 0 -- -- 36
2020-09-10 17:00:00 32.1 21 Sur 36 Sudeste 0 -- -- 35
2020-09-10 16:00:00 33.1 21 Sur 32 Sur 0 -- -- 32
2020-09-10 15:00:00 33.7 14 Sur 23 Sur 0 -- -- 30
2020-09-10 14:00:00 32.3 9 Sudeste 18 Sudeste 0 -- -- 31
2020-09-10 13:00:00 30.6 9 Sudeste 19 Sudeste 0 -- -- 34
2020-09-10 12:00:00 28.1 8 Sudeste 14 Sudeste 0 -- -- 41
2020-09-10 11:00:00 24.7 4 Sudoeste 8 Sur 0 -- -- 47
2020-09-10 10:00:00 19.8 3 Sudoeste 5 Sudeste 0 -- -- 59
2020-09-10 09:00:00 16.9 0 Calma 3 Oeste 0 -- -- 65
2020-09-10 08:00:00 17 0 Calma 5 Norte 0 -- -- 64
2020-09-10 07:00:00 17.1 2 Noroeste 3 Noroeste 0 -- -- 65
2020-09-10 06:00:00 17.1 3 Oeste 4 Sudoeste 0 -- -- 65
2020-09-10 05:00:00 17.5 0 Calma 4 Nordeste 0 -- -- 64
2020-09-10 04:00:00 18.2 2 Oeste 4 Noroeste 0 -- -- 62
2020-09-10 03:00:00 18.4 2 Oeste 5 Oeste 0 -- -- 61
2020-09-10 02:00:00 19.1 0 Calma 4 Norte 0 -- -- 59
2020-09-10 01:00:00 19.9 4 Nordeste 9 Nordeste 0 -- -- 56
2020-09-10 00:00:00 21 6 Este 8 Este 0 -- -- 53
2020-09-09 23:00:00 21.5 3 Sudoeste 14 Sudoeste 0 -- -- 53
2020-09-09 22:00:00 22.3 8 Sudoeste 19 Sudoeste 0 -- -- 51
2020-09-09 21:00:00 23.7 12 Sur 17 Sur 0 -- -- 49
2020-09-09 20:00:00 26.7 11 Sur 19 Sur 0 -- -- 40
2020-09-09 19:00:00 28.7 12 Sur 21 Sudeste 0 -- -- 36
2020-09-09 18:00:00 28.9 13 Sudeste 26 Sudeste 0 -- -- 36
2020-09-09 17:00:00 29.4 15 Sudeste 26 Sudeste 0 -- -- 35
2020-09-09 16:00:00 29.2 17 Sudeste 30 Sur 0 -- -- 35
2020-09-09 15:00:00 28.2 17 Sudeste 29 Sudeste 0 -- -- 38
2020-09-09 14:00:00 27.7 19 Sudeste 34 Sur 0 -- -- 39
2020-09-09 13:00:00 27.3 20 Sur 31 Sudeste 0 -- -- 45
2020-09-09 12:00:00 26.1 18 Sur 24 Sur 0 -- -- 53
2020-09-09 11:00:00 23.7 6 Sudeste 14 Sudeste 0 -- -- 69
2020-09-09 10:00:00 21.6 4 Sur 8 Este 0 -- -- 76
2020-09-09 09:00:00 20.1 4 Nordeste 6 Este 0 -- -- 82
2020-09-09 08:00:00 19.4 2 Este 6 Sudeste 0 -- -- 80
2020-09-09 07:00:00 19.6 3 Sudeste 8 Sudeste 0 -- -- 80
2020-09-09 06:00:00 19.6 5 Sudeste 10 Sur 0 -- -- 81
2020-09-09 05:00:00 20.2 7 Sudeste 12 Sudeste 0 -- -- 80
2020-09-09 04:00:00 20.2 8 Sudeste 15 Sur 0 -- -- 80
2020-09-09 03:00:00 20.4 11 Sudeste 17 Sur 0 -- -- 80
2020-09-09 02:00:00 20.9 10 Sudeste 18 Sur 0 -- -- 81
2020-09-09 01:00:00 21 9 Sur 17 Sur 0 -- -- 82
2020-09-09 00:00:00 20.9 9 Sudeste 17 Sur 0 -- -- 82
2020-09-08 23:00:00 20.9 9 Sur 18 Sur 0 -- -- 79
2020-09-08 22:00:00 21.4 14 Sur 20 Sur 0 -- -- 74
2020-09-08 21:00:00 22.2 13 Sur 30 Sur 0 -- -- 68
2020-09-08 20:00:00 23.7 17 Sudeste 34 Sudeste 0 -- -- 61
2020-09-08 19:00:00 25.2 20 Sur 36 Sudeste 0 -- -- 57
2020-09-08 18:00:00 26.2 25 Sur 39 Sur 0 -- -- 50
2020-09-08 17:00:00 25.4 20 Sur 38 Sudeste 0 -- -- 58
2020-09-08 16:00:00 26 21 Sur 43 Sudeste 0 -- -- 55
2020-09-08 15:00:00 25.1 30 Sudeste 44 Sudeste 0 -- -- 60
2020-09-08 14:00:00 25.8 28 Sudeste 42 Sudeste 0 -- -- 55
2020-09-08 13:00:00 25.1 27 Sudeste 39 Sur 0 -- -- 60
2020-09-08 12:00:00 24.7 25 Sudeste 40 Sudeste 0 -- -- 62
2020-09-08 11:00:00 24.4 22 Sudeste 38 Sudeste 0 -- -- 66
2020-09-08 10:00:00 23.7 20 Sudeste 30 Sur 0 -- -- 74
2020-09-08 09:00:00 22.5 16 Sur 26 Sudeste 0 -- -- 81
2020-09-08 08:00:00 22.4 13 Sur 26 Sudeste 0 -- -- 80
2020-09-08 07:00:00 22.3 13 Sudeste 26 Este 0 -- -- 81
2020-09-08 06:00:00 22.2 15 Sudeste 25 Sudeste 0 -- -- 81
2020-09-08 05:00:00 22.2 12 Sur 18 Sur 0 -- -- 82
2020-09-08 04:00:00 22.3 10 Sur 15 Sur 0 -- -- 82
2020-09-08 03:00:00 22.2 10 Sur 15 Sur 0 -- -- 83
2020-09-08 02:00:00 21.7 7 Sudeste 17 Sur 0 -- -- 81
2020-09-08 01:00:00 21.8 10 Sur 21 Sur 0 -- -- 82
2020-09-08 00:00:00 22.2 15 Sur 24 Sur 0 -- -- 80
2020-09-07 23:00:00 22.7 14 Sur 23 Sur 0 -- -- 79
2020-09-07 22:00:00 23.6 16 Sur 22 Sur 0 -- -- 74
2020-09-07 21:00:00 24.9 12 Sudeste 24 Sudeste 0 -- -- 68
2020-09-07 20:00:00 26.9 18 Sudeste 30 Sudeste 0 -- -- 58
2020-09-07 19:00:00 29.7 22 Sur 31 Sur 0 -- -- 48
2020-09-07 18:00:00 32.4 22 Sur 38 Sur 0 -- -- 40
2020-09-07 17:00:00 34.3 24 Sur 35 Sur 0 -- -- 37
2020-09-07 16:00:00 37 15 Sur 27 Sudeste 0 -- -- 32
2020-09-07 15:00:00 36 10 Sur 20 Sur 0 -- -- 32
2020-09-07 14:00:00 34.1 9 Sur 15 Sudoeste 0 -- -- 36
2020-09-07 13:00:00 31.1 6 Sudeste 14 Sudeste 0 -- -- 39
2020-09-07 12:00:00 28.3 6 Este 10 Este 0 -- -- 47
2020-09-07 11:00:00 24.8 4 Sudeste 8 Este 0 -- -- 64
2020-09-07 10:00:00 21.9 4 Sur 7 Noroeste 0 -- -- 73
2020-09-07 09:00:00 18.6 0 Calma 2 Sudoeste 0 -- -- 83
2020-09-07 08:00:00 18.6 2 Nordeste 5 Norte 0 -- -- 82
2020-09-07 07:00:00 18.6 2 Norte 3 Noroeste 0 -- -- 83
2020-09-07 06:00:00 18.6 3 Noroeste 5 Noroeste 0 -- -- 82
2020-09-07 05:00:00 19.2 0 Calma 6 Nordeste 0 -- -- 79
2020-09-07 04:00:00 19.6 0 Calma 4 Sur 0 -- -- 78
2020-09-07 03:00:00 20.1 0 Calma 6 Norte 0 -- -- 78
2020-09-07 02:00:00 20.9 5 Nordeste 8 Este 0 -- -- 74
2020-09-07 01:00:00 21.5 3 Este 6 Este 0 -- -- 77
2020-09-07 00:00:00 22 3 Este 5 Sudeste 0 -- -- 72
2020-09-06 23:00:00 22.6 2 Sudeste 8 Sur 0 -- -- 69
2020-09-06 22:00:00 23 9 Sur 18 Sur 0 -- -- 69
2020-09-06 21:00:00 24 6 Sur 17 Sudeste 0 -- -- 66
2020-09-06 20:00:00 26 12 Sudeste 21 Sur 0 -- -- 61
2020-09-06 19:00:00 27.5 12 Sudeste 26 Sudeste 0 -- -- 56
2020-09-06 18:00:00 27.9 16 Sudeste 27 Sudeste 0 -- -- 54
2020-09-06 17:00:00 29.1 16 Sur 30 Sur 0 -- -- 51
2020-09-06 16:00:00 28.2 20 Sudeste 32 Sudeste 0 -- -- 54
2020-09-06 15:00:00 27.5 22 Sudeste 32 Sudeste 0 -- -- 56
2020-09-06 14:00:00 27.6 23 Sudeste 35 Sur 0 -- -- 56
2020-09-06 13:00:00 26.2 21 Sudeste 33 Sur 0 -- -- 60
2020-09-06 12:00:00 25.2 16 Sudeste 28 Sudeste 0 -- -- 65
2020-09-06 11:00:00 23.9 15 Sur 27 Sur 0 -- -- 70
2020-09-06 10:00:00 22.1 6 Sudeste 9 Sur 0 -- -- 77
2020-09-06 09:00:00 19.8 3 Sudeste 5 Nordeste 0 -- -- 81
2020-09-06 08:00:00 19.5 3 Nordeste 7 Este 0 -- -- 82
2020-09-06 07:00:00 19.6 5 Este 7 Este 0 -- -- 82
2020-09-06 06:00:00 19.9 5 Este 7 Este 0 -- -- 83
2020-09-06 05:00:00 20.3 4 Sudeste 6 Este 0 -- -- 80
2020-09-06 04:00:00 20.7 5 Este 10 Sudeste 0 -- -- 80
2020-09-06 03:00:00 20.8 6 Sudeste 9 Sudeste 0 -- -- 83
2020-09-06 02:00:00 21.7 7 Sudeste 10 Sudeste 0 -- -- 78
2020-09-06 01:00:00 21.9 8 Sudeste 13 Sur 0 -- -- 77
2020-09-06 00:00:00 21.5 6 Sudeste 9 Sur 0 -- -- 78
2020-09-05 23:00:00 21.6 6 Sudeste 16 Sur 0 -- -- 75
2020-09-05 22:00:00 22.2 10 Sur 17 Sudeste 0 -- -- 71
2020-09-05 21:00:00 23.3 12 Sur 20 Sur 0 -- -- 68
2020-09-05 20:00:00 25.4 17 Sudeste 22 Sudeste 0 -- -- 59
2020-09-05 19:00:00 27.7 15 Sudeste 24 Sudeste 0 -- -- 50
2020-09-05 18:00:00 28.9 13 Sudeste 28 Sudeste 0 -- -- 42
2020-09-05 17:00:00 28.6 19 Sudeste 29 Sudeste 0 -- -- 48
2020-09-05 16:00:00 28.7 19 Sur 32 Sur 0 -- -- 51
2020-09-05 15:00:00 27.9 21 Sudeste 32 Sudeste 0 -- -- 52
2020-09-05 14:00:00 27.4 20 Sudeste 33 Sur 0 -- -- 55
2020-09-05 13:00:00 26.9 23 Sur 32 Sur 0 -- -- 57
2020-09-05 12:00:00 24.7 19 Sudeste 31 Sudeste 0 -- -- 61
2020-09-05 11:00:00 24.1 17 Sur 24 Sur 0 -- -- 69
2020-09-05 10:00:00 22.2 9 Sudeste 15 Sur 0 -- -- 76
2020-09-05 09:00:00 21 8 Sudeste 11 Sudeste 0 -- -- 78
2020-09-05 08:00:00 20.8 7 Sudeste 10 Sudeste 0 -- -- 75
2020-09-05 07:00:00 20.7 5 Sudeste 9 Sudeste 0 -- -- 74
2020-09-05 06:00:00 21.3 6 Sudeste 12 Sudeste 0 -- -- 76
2020-09-05 05:00:00 21.5 7 Sudeste 10 Sur 0 -- -- 76
2020-09-05 04:00:00 21.5 8 Sudeste 9 Sudeste 0 -- -- 76
2020-09-05 03:00:00 21.3 6 Sudeste 9 Sudeste 0 -- -- 76
2020-09-05 02:00:00 21.2 8 Sudeste 12 Este 0 -- -- 77
2020-09-05 01:00:00 21.3 8 Este 12 Sudeste 0 -- -- 75
2020-09-05 00:00:00 21.7 9 Sudeste 12 Sudeste 0 -- -- 74
2020-09-04 23:00:00 21.9 7 Sudeste 13 Sudeste 0 -- -- 73
2020-09-04 22:00:00 22.6 10 Sur 19 Sur 0 -- -- 71
2020-09-04 21:00:00 23.5 12 Sur 25 Sudeste 0 -- -- 67
2020-09-04 20:00:00 25.1 18 Sudeste 31 Este 0 -- -- 60
2020-09-04 19:00:00 26.2 19 Sudeste 34 Sudeste 0 -- -- 57
2020-09-04 18:00:00 27.3 23 Sudeste 41 Sur 0 -- -- 51
2020-09-04 17:00:00 28.3 27 Sudeste 40 Sudeste 0 -- -- 46
2020-09-04 16:00:00 28.4 26 Sudeste 50 Sudeste 0 -- -- 43
2020-09-04 15:00:00 28.5 27 Sudeste 39 Sudeste 0 -- -- 41
2020-09-04 14:00:00 28.2 24 Sudeste 42 Sur 0 -- -- 38
2020-09-04 13:00:00 28.5 24 Sur 41 Sur 0 -- -- 37
2020-09-04 12:00:00 26.9 21 Sur 32 Sur 0 -- -- 42
2020-09-04 11:00:00 24.9 19 Sur 27 Sur 0 -- -- 54
2020-09-04 10:00:00 22.8 10 Sudeste 15 Sudeste 0 -- -- 66
2020-09-04 09:00:00 19.9 11 Este 17 Nordeste 0 -- -- 82
2020-09-04 08:00:00 19.6 9 Este 12 Nordeste 0 -- -- 83
2020-09-04 07:00:00 20.3 5 Este 10 Sudeste 0 -- -- 84
2020-09-04 06:00:00 20.7 7 Sudeste 10 Sudeste 0 -- -- 82
2020-09-04 05:00:00 21 6 Sudeste 14 Sudeste 0 -- -- 83
2020-09-04 04:00:00 21.2 6 Sudeste 13 Sudeste 0 -- -- 82
2020-09-04 03:00:00 21.6 9 Sudeste 17 Este 0 -- -- 81
2020-09-04 02:00:00 21.6 10 Sudeste 16 Sur 0 -- -- 80
2020-09-04 01:00:00 21.3 10 Sudeste 13 Sudeste 0 -- -- 75
2020-09-04 00:00:00 21.7 8 Sudeste 13 Sudeste 0 -- -- 71
2020-09-03 23:00:00 22 8 Sudeste 13 Sur 0 -- -- 70
2020-09-03 22:00:00 23 8 Sudeste 29 Sudeste 0 -- -- 65
2020-09-03 21:00:00 24.1 18 Sur 35 Sur 0 -- -- 57
2020-09-03 20:00:00 25.4 18 Sur 33 Sudeste 0 -- -- 57
2020-09-03 19:00:00 26.5 23 Sur 42 Sur 0 -- -- 55
2020-09-03 18:00:00 27.4 24 Sudeste 37 Sudeste 0 -- -- 47
2020-09-03 17:00:00 28.3 23 Sudeste 44 Sudeste 0 -- -- 47
2020-09-03 16:00:00 27.6 26 Sudeste 42 Sudeste 0 -- -- 48
2020-09-03 15:00:00 27.5 30 Sudeste 45 Sudeste 0 -- -- 45
2020-09-03 14:00:00 27.4 27 Sudeste 45 Sur 0 -- -- 49
2020-09-03 13:00:00 27.2 26 Sudeste 39 Sur 0 -- -- 52
2020-09-03 12:00:00 25.8 19 Sudeste 29 Sur 0 -- -- 60
2020-09-03 11:00:00 24 14 Sur 22 Sur 0 -- -- 69
2020-09-03 10:00:00 22.2 3 Sudeste 8 Sur 0 -- -- 71
2020-09-03 09:00:00 19.5 2 Este 6 Nordeste 0 -- -- 70
2020-09-03 08:00:00 18.7 0 Calma 5 Nordeste 0 -- -- 72
2020-09-03 07:00:00 18.3 0 Calma 5 Nordeste 0 -- -- 73
2020-09-03 06:00:00 18.5 0 Calma 4 Este 0 -- -- 68
2020-09-03 05:00:00 19.1 0 Calma 8 Este 0 -- -- 66
2020-09-03 04:00:00 19.3 4 Nordeste 5 Nordeste 0 -- -- 65
2020-09-03 03:00:00 19.6 0 Calma 5 Nordeste 0 -- -- 61
2020-09-03 02:00:00 20.3 0 Calma 7 Este 0 -- -- 57
2020-09-03 01:00:00 21.4 4 Nordeste 8 Sudeste 0 -- -- 55
2020-09-03 00:00:00 22.1 5 Sudeste 8 Sudeste 0 -- -- 50
2020-09-02 23:00:00 22.3 5 Sudeste 8 Sur 0 -- -- 49
2020-09-02 22:00:00 23.9 5 Sur 12 Sudoeste 0 -- -- 40
2020-09-02 21:00:00 24.6 10 Sudoeste 18 Sur 0 -- -- 41
2020-09-02 20:00:00 26.2 8 Sur 27 Sudeste 0 -- -- 42
2020-09-02 19:00:00 26.7 20 Este 31 Sudeste 0 -- -- 39
2020-09-02 18:00:00 27 22 Sudeste 35 Sudeste 0 -- -- 38
2020-09-02 17:00:00 27.3 24 Sudeste 35 Sudeste 0 -- -- 42
2020-09-02 16:00:00 27.6 23 Sudeste 35 Sudeste 0 -- -- 40
2020-09-02 15:00:00 28.9 18 Sudeste 30 Sur 0 -- -- 36
2020-09-02 14:00:00 29 18 Sur 27 Sur 0 -- -- 36
2020-09-02 13:00:00 27.8 17 Sur 25 Sur 0 -- -- 38
2020-09-02 12:00:00 26 14 Sur 20 Sudeste 0 -- -- 48
2020-09-02 11:00:00 22.6 6 Sur 13 Sur 0 -- -- 67
2020-09-02 10:00:00 18.4 3 Sudoeste 5 Oeste 0 -- -- 71
2020-09-02 09:00:00 16 0 Calma 4 Sur 0 -- -- 74
2020-09-02 08:00:00 15.4 0 Calma 2 Nordeste 0 -- -- 77
2020-09-02 07:00:00 15.8 0 Calma 2 Sudoeste 0 -- -- 76
2020-09-02 06:00:00 16.2 0 Calma 2 Sudeste 0 -- -- 72
2020-09-02 05:00:00 16.8 0 Calma 4 Oeste 0 -- -- 72
2020-09-02 04:00:00 17.4 0 Calma 4 Nordeste 0 -- -- 69
2020-09-02 03:00:00 18.2 0 Calma 6 Nordeste 0 -- -- 71
2020-09-02 02:00:00 19.2 3 Este 8 Sudeste 0 -- -- 72
2020-09-02 01:00:00 20 3 Sudeste 8 Sudeste 0 -- -- 71
2020-09-02 00:00:00 21.1 0 Calma 11 Este 0 -- -- 53
2020-09-01 23:00:00 21.8 6 Sudeste 12 Sudeste 0 -- -- 59
2020-09-01 22:00:00 23.2 8 Sudeste 12 Sudeste 0 -- -- 48
2020-09-01 21:00:00 24.6 7 Sur 16 Sur 0 -- -- 43
2020-09-01 20:00:00 26.8 11 Sur 19 Sur 0 -- -- 40
2020-09-01 19:00:00 27.8 15 Sur 24 Sur 0 -- -- 37
2020-09-01 18:00:00 28.7 15 Sur 22 Sur 0 -- -- 38
2020-09-01 17:00:00 27 10 Sur 21 Sur 0 -- -- 41
2020-09-01 16:00:00 27.7 12 Sudeste 21 Sudeste 0 -- -- 37
2020-09-01 15:00:00 27 10 Sudoeste 18 Sudoeste 0 -- -- 38
2020-09-01 14:00:00 26.6 8 Sur 22 Sudoeste 0 -- -- 38
2020-09-01 13:00:00 25.2 12 Sur 19 Sur 0 -- -- 50
2020-09-01 12:00:00 24.4 5 Sur 12 Sur 0 -- -- 57
2020-09-01 11:00:00 22.6 3 Sudoeste 6 Sudoeste 0 -- -- 68
2020-09-01 10:00:00 18.9 0 Calma 3 Sudeste 0 -- -- 74
2020-09-01 09:00:00 17.5 0 Calma 4 Noroeste 0 -- -- 80
2020-09-01 08:00:00 16.8 2 Noroeste 4 Noroeste 0 -- -- 82
2020-09-01 07:00:00 16.9 2 Noroeste 4 Norte 0 -- -- 81
2020-09-01 06:00:00 17 0 Calma 6 Oeste 0 -- -- 80
2020-09-01 05:00:00 17.3 3 Noroeste 4 Oeste 0 -- -- 78
2020-09-01 04:00:00 17.7 0 Calma 12 Nordeste 0 -- -- 77
2020-09-01 03:00:00 18.6 0 Calma 12 Nordeste 0 -- -- 72
2020-09-01 02:00:00 19.7 8 Nordeste 9 Nordeste 0 -- -- 70
2020-09-01 01:00:00 20.6 4 Nordeste 8 Sudeste 0 -- -- 68
2020-09-01 00:00:00 21.2 6 Sudeste 10 Sudeste 0 -- -- 69
2020-08-31 23:00:00 21.7 7 Sudeste 16 Sudeste 0 -- -- 65
2020-08-31 22:00:00 22.1 11 Sudeste 17 Sur 0 -- -- 63
2020-08-31 21:00:00 23.1 12 Sur 18 Sudeste 0 -- -- 60
2020-08-31 20:00:00 24.9 17 Sudeste 26 Sur 0 -- -- 56
2020-08-31 19:00:00 26 18 Sudeste 33 Sudeste 0 -- -- 52
2020-08-31 18:00:00 26.7 23 Sudeste 35 Sudeste 0 -- -- 46
2020-08-31 17:00:00 27.1 24 Sudeste 40 Sur 0 -- -- 43
2020-08-31 16:00:00 27.4 26 Sudeste 45 Sudeste 0 -- -- 42
2020-08-31 15:00:00 27 27 Sudeste 44 Sudeste 0 -- -- 42
2020-08-31 14:00:00 26.7 23 Sudeste 41 Sur 0 -- -- 47
2020-08-31 13:00:00 26.5 30 Sur 41 Sur 0 -- -- 51
2020-08-31 12:00:00 25.5 25 Sudeste 37 Sudeste 0 -- -- 55
2020-08-31 11:00:00 24.3 18 Sur 27 Sur 0 -- -- 62
2020-08-31 10:00:00 22.1 8 Sur 13 Sur 0 -- -- 76
2020-08-31 09:00:00 20.3 4 Sudeste 7 Sudeste 0 -- -- 83
2020-08-31 08:00:00 19.9 4 Sudeste 7 Sudeste 0 -- -- 83
2020-08-31 07:00:00 20.2 4 Sudeste 6 Este 0 -- -- 82
2020-08-31 06:00:00 20.2 0 Calma 3 Este 0 -- -- 82
2020-08-31 05:00:00 20.5 2 Sudeste 5 Sudeste 0 -- -- 81
2020-08-31 04:00:00 20.8 0 Calma 5 Este 0 -- -- 79
2020-08-31 03:00:00 20.9 4 Este 6 Este 0 -- -- 77
2020-08-31 02:00:00 21 0 Calma 6 Sur 0 -- -- 76
2020-08-31 01:00:00 21.1 0 Calma 8 Sudeste 0 -- -- 74
2020-08-31 00:00:00 21.8 3 Sudeste 7 Sudeste 0 -- -- 68
2020-08-30 23:00:00 22.5 0 Calma 8 Este 0 -- -- 66
2020-08-30 22:00:00 23.2 2 Sudeste 9 Sur 0 -- -- 61
2020-08-30 21:00:00 24.5 5 Sur 22 Sudeste 0 -- -- 48
2020-08-30 20:00:00 26.2 15 Sudeste 28 Sudeste 0 -- -- 38
2020-08-30 19:00:00 27.6 17 Sudeste 28 Sudeste 0 -- -- 34
2020-08-30 18:00:00 28.5 19 Sudeste 30 Sudeste 0 -- -- 30
2020-08-30 17:00:00 29 20 Sudeste 29 Sudeste 0 -- -- 28
2020-08-30 16:00:00 28.9 19 Sudeste 31 Sudeste 0 -- -- 28
2020-08-30 15:00:00 28.8 19 Sudeste 33 Sudeste 0 -- -- 34
2020-08-30 14:00:00 28.5 18 Sudeste 29 Sur 0 -- -- 40
2020-08-30 13:00:00 26.7 21 Sur 28 Sur 0 -- -- 47
2020-08-30 12:00:00 25.6 17 Sur 28 Sur 0 -- -- 48
2020-08-30 11:00:00 22.7 2 Sudoeste 6 Sudeste 0 -- -- 37
2020-08-30 10:00:00 20.6 3 Oeste 6 Oeste 0 -- -- 43
2020-08-30 09:00:00 19.1 3 Norte 6 Noroeste 0 -- -- 36
2020-08-30 08:00:00 19.3 0 Calma 10 Noroeste 0 -- -- 36
2020-08-30 07:00:00 20.1 3 Noroeste 21 Norte 0 -- -- 35
2020-08-30 06:00:00 20.7 13 Norte 22 Norte 0 -- -- 34
2020-08-30 05:00:00 21.2 11 Norte 21 Norte 0 -- -- 31
2020-08-30 04:00:00 21.9 11 Noroeste 23 Noroeste 0 -- -- 30
2020-08-30 03:00:00 21.3 8 Noroeste 15 Norte 0 -- -- 31
2020-08-30 02:00:00 22.1 8 Noroeste 16 Norte 0 -- -- 29
2020-08-30 01:00:00 23.7 5 Norte 14 Noroeste 0 -- -- 27
2020-08-30 00:00:00 24.9 8 Noroeste 24 Norte 0 -- -- 25
2020-08-29 23:00:00 25.9 10 Noroeste 32 Oeste 0 -- -- 25
2020-08-29 22:00:00 26.6 10 Noroeste 38 Oeste 0 -- -- 25
2020-08-29 21:00:00 27.5 13 Noroeste 35 Noroeste 0 -- -- 25
2020-08-29 20:00:00 29 19 Noroeste 42 Oeste 0 -- -- 24
2020-08-29 19:00:00 30 13 Noroeste 39 Oeste 0 -- -- 21
2020-08-29 18:00:00 30.2 18 Noroeste 46 Noroeste 0 -- -- 22
2020-08-29 17:00:00 30 24 Noroeste 53 Oeste 0 -- -- 24
2020-08-29 16:00:00 30.1 15 Noroeste 44 Noroeste 0 -- -- 21
2020-08-29 15:00:00 28.9 18 Noroeste 38 Noroeste 0 -- -- 24
2020-08-29 14:00:00 28.6 13 Noroeste 39 Oeste 0 -- -- 30
2020-08-29 13:00:00 26.2 14 Noroeste 42 Oeste 0 -- -- 34
2020-08-29 12:00:00 24.3 19 Noroeste 39 Oeste 0 -- -- 39
2020-08-29 11:00:00 22.9 14 Noroeste 36 Noroeste 0 -- -- 42
2020-08-29 10:00:00 21.5 17 Noroeste 38 Oeste 0 -- -- 46
2020-08-29 09:00:00 19.9 19 Noroeste 33 Oeste 0 -- -- 47
2020-08-29 08:00:00 20 14 Noroeste 30 Oeste 0 -- -- 44
2020-08-29 07:00:00 20.7 7 Noroeste 18 Noroeste 0 -- -- 40
2020-08-29 06:00:00 21.6 10 Noroeste 24 Noroeste 0 -- -- 38
2020-08-29 05:00:00 22.7 8 Noroeste 23 Noroeste 0 -- -- 37
2020-08-29 04:00:00 23.7 9 Noroeste 26 Noroeste 0 -- -- 37
2020-08-29 03:00:00 24.7 11 Noroeste 26 Oeste 0 -- -- 39
2020-08-29 02:00:00 25.9 9 Noroeste 34 Oeste 0 -- -- 39
2020-08-29 01:00:00 27 18 Noroeste 42 Oeste 0 -- -- 42
2020-08-29 00:00:00 28 19 Noroeste 35 Noroeste 0 -- -- 45
2020-08-28 23:00:00 28.7 14 Noroeste 28 Noroeste 0 -- -- 46
2020-08-28 22:00:00 29.4 13 Noroeste 41 Oeste 0 -- -- 47
2020-08-28 21:00:00 30.8 17 Oeste 40 Oeste 0 -- -- 44
2020-08-28 20:00:00 33.9 23 Oeste 41 Oeste 0 -- -- 36
2020-08-28 19:00:00 35.7 14 Noroeste 38 Noroeste 0 -- -- 30
2020-08-28 18:00:00 36.6 17 Noroeste 42 Noroeste 0 -- -- 27
2020-08-28 17:00:00 36.9 18 Noroeste 44 Oeste 0 -- -- 28
2020-08-28 16:00:00 36.6 24 Oeste 46 Oeste 0 -- -- 32
2020-08-28 15:00:00 37.4 13 Noroeste 45 Noroeste 0 -- -- 28
2020-08-28 14:00:00 36.9 18 Noroeste 34 Norte 0 -- -- 22
2020-08-28 13:00:00 34.9 8 Norte 35 Noroeste 0 -- -- 25
2020-08-28 12:00:00 33.6 15 Noroeste 34 Noroeste 0 -- -- 28
2020-08-28 11:00:00 31 7 Norte 17 Norte 0 -- -- 34
2020-08-28 10:00:00 27.8 10 Noroeste 19 Noroeste 0 -- -- 41
2020-08-28 09:00:00 24 3 Oeste 5 Norte 0 -- -- 49
2020-08-28 08:00:00 23.3 2 Nordeste 9 Norte 0 -- -- 49
2020-08-28 07:00:00 25.1 12 Norte 16 Norte 0 -- -- 45
2020-08-28 06:00:00 23.1 3 Nordeste 5 Norte 0 -- -- 51
2020-08-28 05:00:00 22.1 0 Calma 6 Noroeste 0 -- -- 63
2020-08-28 04:00:00 22.1 3 Noroeste 6 Noroeste 0 -- -- 62
2020-08-28 03:00:00 22.6 0 Calma 4 Oeste 0 -- -- 68
2020-08-28 02:00:00 23 3 Este 4 Sudeste 0 -- -- 68
2020-08-28 01:00:00 23.6 2 Norte 6 Sudeste 0 -- -- 69
2020-08-28 00:00:00 24.2 5 Sudeste 12 Sudeste 0 -- -- 69
2020-08-27 23:00:00 25.5 6 Sudeste 11 Sudeste 0 -- -- 60
2020-08-27 22:00:00 27.8 5 Sudeste 15 Sudoeste 0 -- -- 50
2020-08-27 21:00:00 30.2 14 Sur 22 Sur 0 -- -- 38
2020-08-27 20:00:00 33.5 16 Sur 22 Sur 0 -- -- 34
2020-08-27 19:00:00 35.5 15 Sur 26 Sur 0 -- -- 33
2020-08-27 18:00:00 36.8 18 Sur 26 Sur 0 -- -- 31
2020-08-27 17:00:00 37.4 19 Sur 30 Sur 0 -- -- 31
2020-08-27 16:00:00 37.9 19 Sur 26 Sur 0 -- -- 30
2020-08-27 15:00:00 37.2 18 Sur 29 Sur 0 -- -- 30
2020-08-27 14:00:00 36.4 17 Sur 26 Sur 0 -- -- 32
2020-08-27 13:00:00 34.4 14 Sur 22 Sur 0 -- -- 33
2020-08-27 12:00:00 31.7 13 Sudeste 17 Sur 0 -- -- 42
2020-08-27 11:00:00 28.2 6 Sudeste 9 Este 0 -- -- 49
2020-08-27 10:00:00 23.9 0 Calma 4 Sur 0 -- -- 65
2020-08-27 09:00:00 21.2 0 Calma 3 Nordeste 0 -- -- 72
2020-08-27 08:00:00 20.8 0 Calma 6 Noroeste 0 -- -- 74
2020-08-27 07:00:00 20.8 0 Calma 4 Noroeste 0 -- -- 75
2020-08-27 06:00:00 21.2 0 Calma 2 Este 0 -- -- 79
2020-08-27 05:00:00 21.7 0 Calma 0 Calma 0 -- -- 79
2020-08-27 04:00:00 22.1 2 Sudeste 3 Noroeste 0 -- -- 78
2020-08-27 03:00:00 22.6 0 Calma 6 Este 0 -- -- 80
2020-08-27 02:00:00 23.1 4 Sudeste 8 Sudeste 0 -- -- 79
2020-08-27 01:00:00 24 4 Sudeste 9 Sur 0 -- -- 75
2020-08-27 00:00:00 25 3 Sudeste 9 Sudeste 0 -- -- 70
2020-08-26 23:00:00 26.1 6 Sudeste 12 Sudeste 0 -- -- 65
2020-08-26 22:00:00 27.9 5 Sur 15 Sudeste 0 -- -- 56
2020-08-26 21:00:00 29.7 12 Sudeste 21 Sur 0 -- -- 49
2020-08-26 20:00:00 32.7 17 Sur 23 Sur 0 -- -- 38
2020-08-26 19:00:00 35.3 17 Sur 23 Sur 0 -- -- 37
2020-08-26 18:00:00 36.7 17 Sur 26 Sur 0 -- -- 33
2020-08-26 17:00:00 36.8 15 Sur 28 Sudeste 0 -- -- 31
2020-08-26 16:00:00 36.5 17 Sur 27 Sudeste 0 -- -- 31
2020-08-26 15:00:00 36.4 17 Sur 28 Sudoeste 0 -- -- 32
2020-08-26 14:00:00 34.8 17 Sur 25 Sur 0 -- -- 36
2020-08-26 13:00:00 32.9 13 Sur 20 Sur 0 -- -- 41
2020-08-26 12:00:00 30.3 12 Sur 22 Sur 0 -- -- 46
2020-08-26 11:00:00 27.8 15 Sur 20 Sudeste 0 -- -- 58
2020-08-26 10:00:00 24.4 4 Sur 8 Sur 0 -- -- 65
2020-08-26 09:00:00 21 2 Oeste 4 Noroeste 0 -- -- 74
2020-08-26 08:00:00 20.2 0 Calma 6 Norte 0 -- -- 78
2020-08-26 07:00:00 20.4 2 Norte 4 Noroeste 0 -- -- 80
2020-08-26 06:00:00 20.8 0 Calma 3 Este 0 -- -- 79
2020-08-26 05:00:00 21.6 0 Calma 2 Noroeste 0 -- -- 77
2020-08-26 04:00:00 22.1 0 Calma 5 Noroeste 0 -- -- 75
2020-08-26 03:00:00 22.4 2 Noroeste 5 Este 0 -- -- 75
2020-08-26 02:00:00 23.6 5 Este 8 Nordeste 0 -- -- 69
2020-08-26 01:00:00 24.5 3 Este 5 Este 0 -- -- 69
2020-08-26 00:00:00 24.9 4 Sur 11 Sudoeste 0 -- -- 69
2020-08-25 23:00:00 25.6 6 Sudoeste 15 Sudoeste 0 -- -- 67
2020-08-25 22:00:00 26.8 11 Sudoeste 15 Sur 0 -- -- 61
2020-08-25 21:00:00 28.8 11 Sur 16 Sudeste 0 -- -- 55
2020-08-25 20:00:00 31.8 12 Sur 21 Sur 0 -- -- 40
2020-08-25 19:00:00 33 16 Sur 25 Sur 0 -- -- 38
2020-08-25 18:00:00 33.3 17 Sur 30 Sur 0 -- -- 39
2020-08-25 17:00:00 33.3 21 Sur 29 Sur 0 -- -- 44
2020-08-25 16:00:00 32.4 18 Sudeste 30 Sur 0 -- -- 48
2020-08-25 15:00:00 31.9 21 Sur 36 Sur 0 -- -- 51
2020-08-25 14:00:00 31.2 22 Sudeste 35 Sur 0 -- -- 54
2020-08-25 13:00:00 30.7 22 Sur 32 Sur 0 -- -- 52
2020-08-25 12:00:00 29 14 Sur 25 Sur 0 -- -- 63
2020-08-25 11:00:00 26.9 14 Sur 22 Sur 0 -- -- 71
2020-08-25 10:00:00 25.5 13 Sur 16 Sudeste 0 -- -- 77
2020-08-25 09:00:00 23.7 5 Este 10 Sudeste 0 -- -- 83
2020-08-25 08:00:00 23.1 7 Sudeste 9 Sudeste 0 -- -- 88
2020-08-25 07:00:00 23.7 4 Sudeste 8 Este 0 -- -- 86
2020-08-25 06:00:00 24 5 Sudeste 12 Sudeste 0 -- -- 84
2020-08-25 05:00:00 24 7 Sudeste 11 Sur 0 -- -- 84
2020-08-25 04:00:00 24.5 6 Sur 12 Sudeste 0 -- -- 83
2020-08-25 03:00:00 24.6 10 Sur 17 Sur 0 -- -- 83
2020-08-25 02:00:00 24.7 9 Sur 14 Sur 0 -- -- 82
2020-08-25 01:00:00 24.7 8 Sur 15 Sur 0 -- -- 82
2020-08-25 00:00:00 24.5 12 Sudeste 20 Sur 0 -- -- 82
2020-08-24 23:00:00 24.7 11 Sur 19 Sur 0 -- -- 78
2020-08-24 22:00:00 25.5 10 Sur 18 Sur 0 -- -- 74
2020-08-24 21:00:00 27.2 8 Sur 17 Sudeste 0 -- -- 67
2020-08-24 20:00:00 29.2 13 Sudeste 20 Sudeste 0 -- -- 58
2020-08-24 19:00:00 30.5 16 Sudeste 26 Sudeste 0 -- -- 53
2020-08-24 18:00:00 30.9 18 Sudeste 29 Sudeste 0 -- -- 55
2020-08-24 17:00:00 31.1 17 Sudeste 27 Sur 0 -- -- 55
2020-08-24 16:00:00 30.4 17 Sudeste 31 Sudeste 0 -- -- 57
2020-08-24 15:00:00 31 15 Sudeste 28 Este 0 -- -- 55
2020-08-24 14:00:00 28.8 21 Sudeste 32 Sudeste 0 -- -- 62
2020-08-24 13:00:00 28.7 17 Sudeste 29 Sur 0 -- -- 61
2020-08-24 12:00:00 27.8 15 Sur 21 Sur 0 -- -- 66
2020-08-24 11:00:00 26.1 11 Sudeste 15 Sudeste 0 -- -- 77
2020-08-24 10:00:00 24.6 5 Sudeste 8 Sudeste 0 -- -- 83
2020-08-24 09:00:00 23.7 5 Sudeste 8 Sudeste 0 -- -- 86
2020-08-24 08:00:00 23.5 8 Sudeste 12 Sudeste 0 -- -- 87
2020-08-24 07:00:00 23.6 5 Este 10 Este 0 -- -- 86
2020-08-24 06:00:00 23.6 5 Nordeste 9 Este 0 -- -- 82
2020-08-24 05:00:00 23.5 4 Este 8 Sur 0 -- -- 85
2020-08-24 04:00:00 23.7 5 Sur 15 Sur 0 -- -- 83
2020-08-24 03:00:00 23.9 4 Sudeste 6 Sudeste 0 -- -- 78
2020-08-24 02:00:00 24.1 4 Sudeste 6 Sudeste 0 -- -- 77
2020-08-24 01:00:00 24.9 4 Sudeste 6 Sudeste 0 -- -- 73
2020-08-24 00:00:00 25.3 5 Sudeste 11 Sur 0 -- -- 73
2020-08-23 23:00:00 25.6 6 Sur 20 Sur 0 -- -- 72
2020-08-23 22:00:00 26.6 13 Sur 17 Sur 0 -- -- 68
2020-08-23 21:00:00 28 12 Sur 19 Sur 0 -- -- 61
2020-08-23 20:00:00 30.5 13 Sur 22 Sur 0 -- -- 54
2020-08-23 19:00:00 31.2 14 Sudeste 25 Sudeste 0 -- -- 52
2020-08-23 18:00:00 32.5 17 Sur 26 Sudeste 0 -- -- 47
2020-08-23 17:00:00 32.6 16 Sur 27 Sudoeste 0 -- -- 47
2020-08-23 16:00:00 31.7 18 Sudeste 32 Sur 0 -- -- 53
2020-08-23 15:00:00 31.7 21 Sur 32 Sur 0 -- -- 50
2020-08-23 14:00:00 30.9 24 Sur 33 Sur 0 -- -- 57
2020-08-23 13:00:00 30.6 22 Sur 32 Sudeste 0 -- -- 56
2020-08-23 12:00:00 31.3 23 Sur 30 Sur 0 -- -- 45
2020-08-23 11:00:00 28.3 3 Sur 8 Sudeste 0 -- -- 46
2020-08-23 10:00:00 24.8 3 Sur 6 Sur 0 -- -- 58
2020-08-23 09:00:00 22 0 Calma 4 Norte 0 -- -- 62
2020-08-23 08:00:00 21.3 0 Calma 4 Nordeste 0 -- -- 64
2020-08-23 07:00:00 21.6 0 Calma 4 Nordeste 0 -- -- 65
2020-08-23 06:00:00 22.3 0 Calma 3 Norte 0 -- -- 67
2020-08-23 05:00:00 23.1 3 Norte 5 Norte 0 -- -- 65
2020-08-23 04:00:00 23.4 0 Calma 4 Norte 0 -- -- 66
2020-08-23 03:00:00 23.6 4 Nordeste 10 Sudeste 0 -- -- 65
2020-08-23 02:00:00 23.4 8 Sudeste 13 Sudeste 0 -- -- 70
2020-08-23 01:00:00 24.1 3 Sudeste 5 Este 0 -- -- 67
2020-08-23 00:00:00 24.7 5 Este 12 Sudeste 0 -- -- 65